Terminal Aerodrome Forecast
Issued by NWS Brownsville, TX

Home | Current Version | Previous Version | Text Only | Print | Product List | Glossary On
Versions: 1 2 3 4 5 6 7 8 9 10 11 12
000
FTUS44 KBRO 311730
TAFMFE
TAF
KMFE 311730Z 3118/0118 15012KT P6SM SCT040
     FM312000 14012G18KT P6SM VCTS SCT040CB BKN100
      TEMPO 3120/3124 4SM TSRA BKN025CB
     FM010000 12014G20KT P6SM BKN050
     FM010300 13010KT P6SM FEW025=

USA.gov is the U.S. government's official web portal to all federal, state and local government web resources and services.